createdAt,value
2022-10-09T00:01:21.945Z,12.43
2022-10-09T00:03:52.539Z,14.03
2022-10-09T00:06:23.901Z,17.33
2022-10-09T00:08:53.632Z,12.03
2022-10-09T00:11:24.844Z,15.87
2022-10-09T00:13:54.059Z,14.27
2022-10-09T00:16:22.899Z,11.10
2022-10-09T00:18:51.745Z,15.83
2022-10-09T00:21:22.746Z,10.40
2022-10-09T00:23:51.756Z,10.67
2022-10-09T00:26:22.155Z,12.97
2022-10-09T00:28:50.834Z,15.23
2022-10-09T00:31:19.067Z,12.43
2022-10-09T00:33:47.689Z,13.57
2022-10-09T00:36:18.429Z,13.87
2022-10-09T00:38:46.711Z,13.03
2022-10-09T00:41:16.761Z,11.50
2022-10-09T00:43:49.378Z,13.70
2022-10-09T00:46:27.426Z,13.03
2022-10-09T00:49:10.985Z,14.17
2022-10-09T00:51:39.966Z,10.93
2022-10-09T00:54:13.371Z,8.27
2022-10-09T00:56:41.990Z,9.73
2022-10-09T00:59:12.545Z,9.53
2022-10-09T01:01:42.203Z,8.20
2022-10-09T01:04:10.416Z,8.93
2022-10-09T01:06:54.114Z,12.43
2022-10-09T01:09:27.268Z,11.53
2022-10-09T01:12:00.330Z,10.43
2022-10-09T01:14:34.889Z,10.40
2022-10-09T01:17:10.216Z,11.17
2022-10-09T01:20:05.586Z,9.80
2022-10-09T01:22:47.635Z,8.23
2022-10-09T01:25:23.236Z,9.37
2022-10-09T01:27:52.825Z,8.20
2022-10-09T01:30:20.998Z,11.30
2022-10-09T01:32:53.249Z,9.50
2022-10-09T01:35:23.078Z,10.70
2022-10-09T01:37:53.481Z,9.20
2022-10-09T01:40:23.098Z,9.87
2022-10-09T01:42:52.887Z,9.13
2022-10-09T01:45:20.911Z,8.80
2022-10-09T01:47:48.940Z,11.37
2022-10-09T01:50:24.686Z,9.07
2022-10-09T01:52:55.634Z,9.90
2022-10-09T01:55:33.630Z,10.43
2022-10-09T01:58:10.544Z,12.73
2022-10-09T02:00:41.544Z,10.43
2022-10-09T02:03:13.114Z,9.37
2022-10-09T02:05:43.338Z,11.33
2022-10-09T02:08:16.271Z,10.57
2022-10-09T02:10:46.826Z,9.77
2022-10-09T02:13:16.506Z,9.53
2022-10-09T02:15:49.554Z,9.23
2022-10-09T02:18:24.576Z,8.70
2022-10-09T02:20:58.250Z,9.30
2022-10-09T02:23:28.286Z,9.33
2022-10-09T02:25:56.721Z,12.23
2022-10-09T02:28:26.683Z,9.80
2022-10-09T02:31:04.073Z,8.67
2022-10-09T02:33:34.001Z,9.30
2022-10-09T02:36:02.715Z,12.37
2022-10-09T02:38:31.166Z,11.17
2022-10-09T02:41:00.226Z,11.33
2022-10-09T02:43:30.131Z,10.47
2022-10-09T02:45:58.315Z,7.87
2022-10-09T02:48:26.307Z,9.33
2022-10-09T02:50:54.236Z,10.53
2022-10-09T02:53:22.278Z,10.33
2022-10-09T02:55:50.252Z,11.90
2022-10-09T02:58:18.269Z,10.37
2022-10-09T03:00:50.729Z,8.90
2022-10-09T03:03:19.757Z,9.60
2022-10-09T03:05:48.696Z,8.93
2022-10-09T03:08:16.834Z,8.67
2022-10-09T03:10:45.317Z,10.77
2022-10-09T03:13:13.249Z,12.33
2022-10-09T03:15:41.492Z,11.80
2022-10-09T03:18:10.912Z,10.10
2022-10-09T03:20:39.587Z,11.20
2022-10-09T03:23:07.620Z,8.10
2022-10-09T03:25:35.973Z,12.70
2022-10-09T03:28:04.268Z,11.47
2022-10-09T03:30:32.313Z,9.80
2022-10-09T03:33:00.391Z,11.43
2022-10-09T03:35:29.726Z,10.63
2022-10-09T03:37:57.718Z,13.57
2022-10-09T03:40:25.738Z,8.87
2022-10-09T03:42:53.668Z,9.47
2022-10-09T03:45:21.662Z,10.87
2022-10-09T03:47:49.628Z,10.63
2022-10-09T03:50:17.875Z,9.83
2022-10-09T03:52:47.566Z,10.20
2022-10-09T03:55:15.982Z,9.60
2022-10-09T03:57:44.143Z,10.07
2022-10-09T04:00:13.639Z,11.77
2022-10-09T04:02:41.708Z,11.87
2022-10-09T04:05:10.437Z,11.83
2022-10-09T04:07:38.489Z,12.63
2022-10-09T04:10:08.679Z,12.87
2022-10-09T04:12:36.856Z,11.23
2022-10-09T04:15:05.568Z,9.43
2022-10-09T04:17:33.531Z,13.13
2022-10-09T04:20:01.530Z,12.90
2022-10-09T04:22:29.639Z,10.60
2022-10-09T04:24:57.612Z,9.13
2022-10-09T04:27:26.988Z,11.47
2022-10-09T04:29:54.985Z,10.63
2022-10-09T04:32:22.957Z,8.87
2022-10-09T04:34:51.121Z,9.10
2022-10-09T04:37:19.177Z,9.70
2022-10-09T04:39:47.199Z,12.83
2022-10-09T04:42:15.173Z,9.53
2022-10-09T04:44:44.695Z,10.87
2022-10-09T04:47:12.624Z,13.63
2022-10-09T04:49:40.841Z,13.87
2022-10-09T04:52:08.857Z,9.10
2022-10-09T04:54:36.829Z,8.37
2022-10-09T04:57:04.801Z,10.50
2022-10-09T04:59:33.973Z,11.07
2022-10-09T05:02:03.812Z,10.60
2022-10-09T05:04:32.990Z,10.87
2022-10-09T05:07:01.117Z,11.00
2022-10-09T05:09:29.328Z,15.87
2022-10-09T05:11:57.351Z,9.10
2022-10-09T05:14:25.713Z,12.37
2022-10-09T05:17:13.232Z,13.40
2022-10-09T05:19:43.723Z,9.00
2022-10-09T05:22:11.697Z,15.10
2022-10-09T05:24:39.697Z,8.40
2022-10-09T05:27:07.752Z,9.73
2022-10-09T05:29:35.765Z,10.93
2022-10-09T05:32:03.823Z,13.07
2022-10-09T05:34:33.837Z,9.97
2022-10-09T05:37:03.609Z,9.40
2022-10-09T05:39:32.477Z,11.10
2022-10-09T05:42:00.491Z,11.00
2022-10-09T05:44:28.492Z,9.87
2022-10-09T05:46:56.677Z,13.27
2022-10-09T05:49:25.030Z,10.67
2022-10-09T05:51:53.054Z,9.70
2022-10-09T05:54:22.943Z,9.23
2022-10-09T05:56:51.048Z,13.20
2022-10-09T05:59:20.558Z,14.47
2022-10-09T06:01:50.981Z,11.17
2022-10-09T06:04:21.932Z,9.33
2022-10-09T06:06:50.128Z,8.40
2022-10-09T06:09:19.213Z,10.03
2022-10-09T06:11:48.726Z,9.60
2022-10-09T06:14:16.727Z,14.20
2022-10-09T06:16:46.916Z,11.23
2022-10-09T06:19:17.384Z,11.37
2022-10-09T06:21:47.233Z,11.77
2022-10-09T06:24:25.568Z,12.03
2022-10-09T06:26:57.670Z,10.63
2022-10-09T06:29:26.091Z,9.83
2022-10-09T06:31:55.183Z,13.57
2022-10-09T06:34:23.744Z,12.80
2022-10-09T06:36:53.240Z,9.83
2022-10-09T06:39:23.123Z,10.90
2022-10-09T06:41:51.145Z,9.20
2022-10-09T06:44:22.371Z,12.93
2022-10-09T06:46:50.952Z,9.90
2022-10-09T06:49:19.426Z,16.73
2022-10-09T06:51:47.671Z,11.43
2022-10-09T06:54:20.214Z,9.27
2022-10-09T06:56:48.864Z,10.50
2022-10-09T06:59:16.970Z,11.13
2022-10-09T07:02:00.127Z,10.43
2022-10-09T07:04:30.479Z,13.23
2022-10-09T07:06:58.552Z,10.60
2022-10-09T07:09:27.157Z,9.93
2022-10-09T07:11:57.358Z,9.23
2022-10-09T07:14:25.799Z,8.43
2022-10-09T07:16:55.945Z,9.50
2022-10-09T07:19:25.001Z,9.10
2022-10-09T07:21:53.893Z,9.70
2022-10-09T07:24:24.868Z,9.73
2022-10-09T07:26:55.163Z,8.93
2022-10-09T07:29:23.217Z,6.90
2022-10-09T07:31:51.373Z,7.23
2022-10-09T07:34:20.762Z,7.03
2022-10-09T07:36:50.057Z,9.20
2022-10-09T07:39:20.166Z,11.00
2022-10-09T07:41:50.571Z,11.10
2022-10-09T07:44:18.708Z,15.57
2022-10-09T07:46:46.865Z,10.03
2022-10-09T07:49:15.280Z,12.80
2022-10-09T07:51:45.389Z,8.32
2022-10-09T07:54:13.574Z,13.83
2022-10-09T07:56:41.770Z,8.50
2022-10-09T07:59:21.246Z,10.27
2022-10-09T08:01:49.357Z,6.88
2022-10-09T08:04:17.697Z,9.90
2022-10-09T08:06:49.460Z,12.40
2022-10-09T08:09:21.082Z,9.10
2022-10-09T08:11:49.441Z,8.77
2022-10-09T08:14:20.901Z,10.40
2022-10-09T08:16:57.022Z,10.15
2022-10-09T08:19:25.722Z,11.70
2022-10-09T08:21:59.077Z,7.55
2022-10-09T08:24:32.040Z,8.45
2022-10-09T08:27:01.238Z,11.07
2022-10-09T08:29:29.327Z,7.55
2022-10-09T08:31:57.366Z,10.50
2022-10-09T08:34:25.504Z,11.85
2022-10-09T08:36:54.902Z,10.38
2022-10-09T08:39:23.564Z,8.80
2022-10-09T08:41:57.783Z,9.82
2022-10-09T08:44:29.207Z,10.15
2022-10-09T08:47:10.158Z,8.95
2022-10-09T08:49:46.288Z,6.00
2022-10-09T08:52:39.718Z,9.43
2022-10-09T08:55:17.960Z,6.72
2022-10-09T08:57:48.114Z,5.57
2022-10-09T09:00:19.251Z,8.70
2022-10-09T09:03:14.992Z,10.95
2022-10-09T09:05:49.933Z,8.82
2022-10-09T09:08:29.900Z,10.63
2022-10-09T09:11:17.048Z,8.98
2022-10-09T09:13:59.022Z,8.07
2022-10-09T09:16:43.083Z,10.93
2022-10-09T09:19:28.260Z,9.18
2022-10-09T09:21:57.218Z,6.95
2022-10-09T09:24:34.969Z,8.45
2022-10-09T09:27:10.916Z,6.20
2022-10-09T09:29:44.336Z,8.13
2022-10-09T09:32:19.058Z,6.43
2022-10-09T09:34:48.331Z,5.63
2022-10-09T09:37:16.972Z,6.10
2022-10-09T09:42:35.015Z,6.10
2022-10-09T09:45:06.660Z,9.57
2022-10-09T09:47:37.803Z,8.23
2022-10-09T09:50:18.524Z,6.43
2022-10-09T09:52:52.157Z,6.95
2022-10-09T09:55:29.023Z,6.63
2022-10-09T09:58:03.097Z,4.43
2022-10-09T10:00:31.670Z,7.85
2022-10-09T10:03:12.766Z,8.68
2022-10-09T10:05:42.286Z,6.03
2022-10-09T10:08:25.535Z,5.57
2022-10-09T10:10:57.713Z,7.00
2022-10-09T10:13:33.803Z,5.10
2022-10-09T10:16:03.150Z,4.65
2022-10-09T10:18:38.099Z,5.90
2022-10-09T10:21:11.938Z,5.35
2022-10-09T10:23:44.108Z,4.75
2022-10-09T10:26:24.420Z,6.43
2022-10-09T10:28:58.667Z,5.18
2022-10-09T10:31:47.895Z,4.90
2022-10-09T10:34:21.327Z,4.45
2022-10-09T10:37:02.439Z,5.10
2022-10-09T10:39:36.948Z,4.00
2022-10-09T10:42:13.497Z,6.57
2022-10-09T10:44:51.375Z,8.00
2022-10-09T10:47:25.448Z,4.88
2022-10-09T10:49:53.983Z,3.85
2022-10-09T10:52:37.142Z,4.72
2022-10-09T10:55:20.982Z,5.90
2022-10-09T10:57:59.617Z,5.32
2022-10-09T11:00:28.761Z,3.67
2022-10-09T11:03:28.947Z,5.93
2022-10-09T11:06:05.823Z,7.10
2022-10-09T11:08:47.775Z,5.97
2022-10-09T11:11:23.753Z,5.28
2022-10-09T11:14:06.383Z,4.85
2022-10-09T11:16:50.399Z,4.05
2022-10-09T11:19:35.293Z,3.58
2022-10-09T11:22:11.245Z,5.47
2022-10-09T11:24:58.345Z,6.40
2022-10-09T11:27:40.385Z,5.95
2022-10-09T11:30:13.759Z,5.20
2022-10-09T11:32:53.985Z,5.78
2022-10-09T11:35:23.299Z,9.05
2022-10-09T11:37:59.907Z,4.88
2022-10-09T11:40:33.382Z,4.07
2022-10-09T11:43:10.882Z,4.47
2022-10-09T11:45:47.994Z,5.80
2022-10-09T11:48:23.402Z,3.40
2022-10-09T11:51:02.012Z,4.20
2022-10-09T11:53:34.532Z,5.63
2022-10-09T11:56:05.187Z,5.63
2022-10-09T11:58:33.860Z,6.47
2022-10-09T12:01:14.933Z,3.42
2022-10-09T12:03:43.399Z,4.38
2022-10-09T12:06:13.495Z,4.80
2022-10-09T12:08:44.590Z,7.72
2022-10-09T12:11:16.595Z,6.38
2022-10-09T12:13:51.569Z,5.10
2022-10-09T12:16:37.437Z,4.28
2022-10-09T12:19:13.316Z,4.85
2022-10-09T12:21:47.593Z,8.85
2022-10-09T12:24:19.117Z,4.53
2022-10-09T12:26:48.359Z,5.38
2022-10-09T12:29:25.887Z,4.80
2022-10-09T12:31:59.636Z,4.90
2022-10-09T12:34:32.255Z,4.50
2022-10-09T12:37:16.070Z,4.45
2022-10-09T12:39:44.909Z,5.38
2022-10-09T12:42:24.844Z,7.10
2022-10-09T12:44:55.371Z,5.50
2022-10-09T12:47:27.747Z,3.88
2022-10-09T12:49:58.137Z,5.88
2022-10-09T12:52:26.333Z,6.38
2022-10-09T12:54:54.417Z,3.53
2022-10-09T12:57:25.361Z,8.45
2022-10-09T12:59:56.295Z,5.43
2022-10-09T13:02:25.796Z,8.38
2022-10-09T13:04:59.531Z,5.43
2022-10-09T13:07:29.946Z,3.30
2022-10-09T13:10:04.047Z,3.58
2022-10-09T13:12:33.615Z,6.07
2022-10-09T13:15:02.596Z,6.88
2022-10-09T13:17:34.444Z,4.40
2022-10-09T13:20:04.121Z,5.68
2022-10-09T13:22:35.125Z,4.45
2022-10-09T13:25:04.201Z,7.82
2022-10-09T13:27:35.330Z,4.28
2022-10-09T13:30:03.316Z,5.85
2022-10-09T13:32:32.926Z,4.30
2022-10-09T13:35:00.866Z,3.38
2022-10-09T13:37:28.904Z,4.35
2022-10-09T13:39:58.590Z,6.30
2022-10-09T13:42:29.487Z,4.78
2022-10-09T13:44:57.477Z,7.40
2022-10-09T13:47:25.540Z,9.02
2022-10-09T13:49:55.611Z,7.15
2022-10-09T13:52:23.535Z,4.80
2022-10-09T13:54:51.712Z,5.47
2022-10-09T13:57:20.081Z,4.13
2022-10-09T13:59:48.132Z,3.78
2022-10-09T14:02:16.344Z,5.32
2022-10-09T14:04:44.418Z,3.35
2022-10-09T14:07:13.883Z,5.70
2022-10-09T14:09:43.038Z,6.93
2022-10-09T14:12:14.329Z,3.10
2022-10-09T14:14:43.702Z,4.53
2022-10-09T14:17:12.007Z,5.25
2022-10-09T14:19:41.294Z,5.97
2022-10-09T14:22:09.491Z,8.70
2022-10-09T14:24:39.178Z,8.52
2022-10-09T14:27:08.003Z,4.60
2022-10-09T14:29:37.628Z,3.58
2022-10-09T14:32:06.211Z,9.15
2022-10-09T14:34:34.160Z,4.60
2022-10-09T14:37:07.344Z,14.27
2022-10-09T14:39:44.368Z,6.93
2022-10-09T14:42:12.373Z,7.57
2022-10-09T14:44:42.457Z,10.02
2022-10-09T14:47:10.540Z,9.27
2022-10-09T14:49:38.714Z,7.18
2022-10-09T14:52:06.911Z,9.40
2022-10-09T14:54:35.323Z,4.93
2022-10-09T14:57:05.821Z,7.35
2022-10-09T14:59:33.816Z,7.85
2022-10-09T15:02:01.957Z,5.68
2022-10-09T15:04:30.621Z,8.68
2022-10-09T15:06:58.731Z,7.72
2022-10-09T15:09:26.851Z,10.40
2022-10-09T15:11:54.955Z,7.05
2022-10-09T15:14:24.461Z,10.85
2022-10-09T15:16:52.460Z,14.23
2022-10-09T15:19:20.635Z,11.35
2022-10-09T15:21:48.679Z,10.27
2022-10-09T15:24:16.706Z,9.25
2022-10-09T15:26:44.694Z,7.30
2022-10-09T15:29:12.979Z,14.00
2022-10-09T15:31:43.967Z,12.00
2022-10-09T15:34:18.002Z,14.00
2022-10-09T15:36:46.304Z,12.27
2022-10-09T15:39:15.030Z,9.23
2022-10-09T15:41:44.729Z,9.43
2022-10-09T15:44:17.428Z,8.50
2022-10-09T15:46:48.708Z,9.02
2022-10-09T15:49:16.742Z,10.57
2022-10-09T15:51:44.865Z,11.73
2022-10-09T15:54:15.550Z,10.48
2022-10-09T15:56:44.043Z,9.88
2022-10-09T15:59:12.923Z,10.18
2022-10-09T16:01:41.149Z,9.60
2022-10-09T16:04:11.012Z,8.70
2022-10-09T16:06:39.174Z,8.88
2022-10-09T16:09:07.256Z,8.30
2022-10-09T16:11:35.493Z,6.25
2022-10-09T16:14:05.775Z,6.10
2022-10-09T16:16:37.245Z,10.02
2022-10-09T16:19:05.761Z,12.98
2022-10-09T16:21:36.072Z,10.48
2022-10-09T16:24:04.286Z,10.52
2022-10-09T16:26:32.708Z,12.95
2022-10-09T16:29:01.217Z,16.25
2022-10-09T16:31:31.856Z,18.70
2022-10-09T16:34:00.146Z,18.48
2022-10-09T16:36:28.520Z,10.10
2022-10-09T16:38:58.729Z,10.05
2022-10-09T16:41:27.403Z,13.15
2022-10-09T16:44:00.013Z,20.23
2022-10-09T16:46:30.683Z,14.05
2022-10-09T16:49:00.120Z,11.68
2022-10-09T16:51:30.873Z,18.70
2022-10-09T16:54:05.353Z,12.60
2022-10-09T16:56:35.049Z,12.55
2022-10-09T16:59:05.844Z,18.13
2022-10-09T17:01:36.125Z,14.30
2022-10-09T17:04:04.133Z,15.18
2022-10-09T17:06:32.135Z,13.05
2022-10-09T17:09:01.826Z,23.30
2022-10-09T17:11:33.074Z,17.80
2022-10-09T17:14:01.156Z,19.95
2022-10-09T17:16:32.861Z,19.60
2022-10-09T17:19:01.508Z,14.80
2022-10-09T17:21:34.146Z,15.30
2022-10-09T17:24:07.795Z,12.43
2022-10-09T17:26:36.341Z,12.48
2022-10-09T17:29:07.514Z,12.40
2022-10-09T17:31:35.822Z,8.80
2022-10-09T17:34:06.002Z,16.60
2022-10-09T17:36:36.575Z,13.18
2022-10-09T17:39:09.063Z,14.98
2022-10-09T17:41:37.344Z,12.20
2022-10-09T17:44:07.129Z,17.98
2022-10-09T17:46:35.368Z,15.80
2022-10-09T17:49:03.704Z,12.00
2022-10-09T17:51:33.652Z,12.95
2022-10-09T17:54:05.859Z,14.02
2022-10-09T17:56:37.803Z,10.48
2022-10-09T17:59:07.579Z,11.25
2022-10-09T18:01:36.268Z,15.38
2022-10-09T18:04:04.819Z,13.43
2022-10-09T18:06:34.895Z,13.95
2022-10-09T18:09:03.407Z,16.23
2022-10-09T18:11:31.376Z,12.55
2022-10-09T18:14:01.585Z,14.48
2022-10-09T18:16:35.714Z,15.07
2022-10-09T18:19:06.650Z,13.93
2022-10-09T18:21:35.751Z,16.35
2022-10-09T18:24:03.924Z,14.10
2022-10-09T18:26:32.109Z,13.75
2022-10-09T18:29:02.281Z,17.92
2022-10-09T18:31:31.258Z,16.67
2022-10-09T18:34:00.212Z,14.32
2022-10-09T18:36:31.753Z,15.93
2022-10-09T18:39:02.304Z,24.08
2022-10-09T18:41:30.671Z,20.63
2022-10-09T18:44:01.316Z,23.85
2022-10-09T18:46:35.339Z,23.73
2022-10-09T18:49:04.187Z,16.52
2022-10-09T18:51:32.584Z,15.35
2022-10-09T18:54:04.143Z,11.82
2022-10-09T18:56:34.057Z,13.07
2022-10-09T18:59:05.175Z,12.00
2022-10-09T19:01:34.738Z,11.52
2022-10-09T19:04:02.897Z,14.40
2022-10-09T19:06:31.132Z,11.57
2022-10-09T19:09:00.930Z,11.00
2022-10-09T19:11:29.340Z,18.90
2022-10-09T19:13:59.751Z,14.77
2022-10-09T19:16:28.362Z,8.53
2022-10-09T19:18:58.629Z,12.07
2022-10-09T19:21:27.172Z,15.23
2022-10-09T19:23:56.561Z,11.93
2022-10-09T19:26:25.358Z,17.67
2022-10-09T19:28:53.484Z,14.50
2022-10-09T19:31:21.930Z,11.35
2022-10-09T19:33:50.824Z,18.30
2022-10-09T19:36:20.726Z,14.48
2022-10-09T19:38:48.799Z,19.38
2022-10-09T19:41:17.494Z,14.48
2022-10-09T19:43:45.942Z,15.23
2022-10-09T19:46:17.294Z,14.50
2022-10-09T19:48:46.608Z,14.53
2022-10-09T19:51:16.436Z,11.80
2022-10-09T19:53:45.869Z,13.30
2022-10-09T19:56:16.513Z,12.10
2022-10-09T19:58:46.437Z,15.63
2022-10-09T20:01:16.053Z,14.17
2022-10-09T20:03:45.450Z,13.17
2022-10-09T20:06:13.803Z,15.00
2022-10-09T20:08:46.347Z,14.67
2022-10-09T20:11:15.288Z,14.30
2022-10-09T20:13:44.175Z,13.23
2022-10-09T20:16:14.967Z,17.57
2022-10-09T20:18:43.936Z,14.77
2022-10-09T20:21:13.426Z,12.10
2022-10-09T20:23:42.018Z,11.57
2022-10-09T20:26:14.103Z,11.33
2022-10-09T20:28:42.595Z,14.93
2022-10-09T20:31:14.859Z,12.23
2022-10-09T20:33:43.888Z,10.63
2022-10-09T20:36:19.910Z,12.03
2022-10-09T20:38:48.109Z,12.07
2022-10-09T20:41:17.683Z,21.17
2022-10-09T20:43:45.806Z,12.43
2022-10-09T20:46:15.516Z,16.03
2022-10-09T20:48:44.248Z,15.70
2022-10-09T20:51:12.368Z,17.13
2022-10-09T20:53:40.391Z,11.77
2022-10-09T20:56:10.134Z,13.73
2022-10-09T20:58:39.790Z,14.37
2022-10-09T21:01:09.172Z,13.73
2022-10-09T21:03:38.599Z,12.87
2022-10-09T21:06:08.155Z,10.53
2022-10-09T21:08:36.982Z,17.43
2022-10-09T21:11:07.186Z,13.20
2022-10-09T21:13:36.156Z,13.90
2022-10-09T21:16:08.596Z,13.73
2022-10-09T21:18:37.734Z,13.80
2022-10-09T21:21:07.707Z,14.30
2022-10-09T21:23:37.180Z,11.83
2022-10-09T21:26:05.398Z,12.97
2022-10-09T21:28:33.414Z,14.67
2022-10-09T21:31:01.460Z,14.33
2022-10-09T21:33:30.847Z,11.93
2022-10-09T21:35:58.965Z,15.30
2022-10-09T21:38:26.926Z,17.30
2022-10-09T21:40:54.947Z,14.73
2022-10-09T21:43:22.926Z,14.67
2022-10-09T21:45:51.559Z,15.90
2022-10-09T21:48:19.658Z,16.37
2022-10-09T21:50:49.104Z,15.33
2022-10-09T21:53:17.117Z,16.70
2022-10-09T21:55:45.234Z,22.27
2022-10-09T21:58:13.197Z,23.93
2022-10-09T22:00:47.408Z,21.13
2022-10-09T22:03:15.387Z,19.83
2022-10-09T22:05:43.460Z,20.77
2022-10-09T22:08:12.839Z,22.73
2022-10-09T22:10:42.864Z,23.70
2022-10-09T22:13:10.942Z,19.30
2022-10-09T22:15:41.654Z,25.43
2022-10-09T22:18:09.727Z,23.83
2022-10-09T22:20:41.741Z,26.60
2022-10-09T22:23:09.846Z,33.63
2022-10-09T22:25:40.326Z,24.60
2022-10-09T22:28:08.605Z,22.53
2022-10-09T22:30:37.058Z,23.20
2022-10-09T22:33:05.239Z,19.93
2022-10-09T22:35:33.227Z,23.43
2022-10-09T22:38:01.226Z,26.63
2022-10-09T22:40:29.187Z,24.53
2022-10-09T22:42:58.644Z,23.63
2022-10-09T22:45:26.651Z,22.03
2022-10-09T22:47:54.625Z,23.63
2022-10-09T22:50:22.624Z,22.70
2022-10-09T22:52:51.744Z,23.70
2022-10-09T22:55:19.865Z,21.70
2022-10-09T22:57:47.873Z,22.83
2022-10-09T23:00:17.696Z,23.57
2022-10-09T23:02:45.653Z,25.10
2022-10-09T23:05:13.647Z,28.80
2022-10-09T23:07:41.561Z,29.80
2022-10-09T23:10:10.254Z,20.83
2022-10-09T23:12:38.292Z,33.60
2022-10-09T23:15:07.409Z,24.90
2022-10-09T23:17:36.784Z,26.60
2022-10-09T23:20:05.113Z,25.77
2022-10-09T23:22:33.105Z,30.00
2022-10-09T23:25:01.172Z,23.17
2022-10-09T23:27:29.321Z,23.17
2022-10-09T23:29:57.306Z,28.47
2022-10-09T23:32:25.292Z,26.67
2022-10-09T23:34:54.814Z,24.53
2022-10-09T23:37:23.413Z,25.67
2022-10-09T23:39:51.405Z,26.03
2022-10-09T23:42:19.606Z,24.20
2022-10-09T23:44:47.648Z,27.20
2022-10-09T23:47:15.574Z,25.47
2022-10-09T23:49:43.667Z,21.27
2022-10-09T23:52:13.013Z,23.37
2022-10-09T23:54:41.494Z,23.83
2022-10-09T23:57:09.555Z,24.70
2022-10-09T23:59:38.729Z,22.43
